Time;durP1;ratioP1;P1;durP2;ratioP2;P2;SDS_P1;SDS_P2;PMS_P1;PMS_P2;Temp;Humidity;BMP_temperature;BMP_pressure;BME280_temperature;BME280_humidity;BME280_pressure;Samples;Min_cycle;Max_cycle;Signal;HPM_P1;HPM_P2
2022/08/01 00:00:06;;;;;;;0.20;0.20;;;;;;;;;;5054007;28;20036;-73
2022/08/01 00:02:32;;;;;;;0.35;0.35;;;;;;;;;;5052773;28;20033;-73
2022/08/01 00:04:57;;;;;;;0.90;0.90;;;;;;;;;;5054080;28;20025;-71
2022/08/01 00:07:23;;;;;;;0.20;0.20;;;;;;;;;;5036103;28;20045;-72
2022/08/01 00:09:48;;;;;;;0.20;0.20;;;;;;;;;;5053876;28;20082;-74
2022/08/01 00:12:14;;;;;;;0.20;0.20;;;;;;;;;;5054255;28;20029;-73
2022/08/01 00:14:39;;;;;;;0.20;0.20;;;;;;;;;;5053308;28;20064;-72
2022/08/01 00:17:05;;;;;;;0.20;0.20;;;;;;;;;;5051429;28;20044;-71
2022/08/01 00:19:30;;;;;;;0.20;0.20;;;;;;;;;;5037934;28;20535;-70
2022/08/01 00:21:56;;;;;;;0.40;0.40;;;;;;;;;;5034535;28;20026;-72
2022/08/01 00:24:21;;;;;;;0.30;0.30;;;;;;;;;;5034217;28;20076;-72
2022/08/01 00:26:47;;;;;;;0.45;0.45;;;;;;;;;;5033004;28;20021;-73
2022/08/01 00:29:12;;;;;;;0.20;0.20;;;;;;;;;;5032916;28;20112;-72
2022/08/01 00:31:38;;;;;;;0.10;0.10;;;;;;;;;;5033924;28;20026;-73
2022/08/01 00:34:03;;;;;;;0.30;0.30;;;;;;;;;;5033607;28;20033;-74
2022/08/01 00:36:29;;;;;;;1.27;1.17;;;;;;;;;;5033790;28;20060;-73
2022/08/01 00:38:54;;;;;;;0.20;0.20;;;;;;;;;;5033297;28;20175;-73
2022/08/01 00:41:20;;;;;;;0.20;0.20;;;;;;;;;;5033829;28;20373;-72
2022/08/01 00:43:45;;;;;;;0.20;0.20;;;;;;;;;;5033688;28;20123;-72
2022/08/01 00:46:21;;;;;;;0.20;0.20;;;;;;;;;;5052846;28;20116;-72
2022/08/01 00:48:55;;;;;;;0.20;0.20;;;;;;;;;;5066692;28;20032;-72
2022/08/01 00:51:24;;;;;;;0.20;0.20;;;;;;;;;;5064674;28;20052;-73
2022/08/01 00:53:52;;;;;;;0.28;0.28;;;;;;;;;;5054961;28;20475;-74
2022/08/01 00:56:20;;;;;;;0.20;0.20;;;;;;;;;;5062663;28;20041;-73
2022/08/01 00:58:46;;;;;;;0.20;0.20;;;;;;;;;;5053343;28;20453;-72
2022/08/01 01:01:25;;;;;;;0.85;0.85;;;;;;;;;;5051923;28;20033;-72
2022/08/01 01:03:51;;;;;;;0.20;0.20;;;;;;;;;;5035695;28;20029;-73
2022/08/01 01:06:29;;;;;;;1.65;0.93;;;;;;;;;;5052505;28;20064;-73
2022/08/01 01:08:59;;;;;;;0.20;0.20;;;;;;;;;;5052141;28;20032;-75
2022/08/01 01:11:28;;;;;;;0.22;0.22;;;;;;;;;;5051986;28;20037;-72
2022/08/01 01:14:10;;;;;;;0.20;0.20;;;;;;;;;;5050868;28;20063;-72
2022/08/01 01:16:40;;;;;;;0.20;0.20;;;;;;;;;;5035279;28;20052;-73
2022/08/01 01:19:11;;;;;;;0.20;0.20;;;;;;;;;;5051997;28;20025;-73
2022/08/01 01:21:49;;;;;;;0.20;0.20;;;;;;;;;;5052980;28;20546;-74
2022/08/01 01:24:28;;;;;;;0.20;0.20;;;;;;;;;;5047735;28;20036;-72
2022/08/01 01:27:04;;;;;;;;;;;;;;;;;;5037768;28;20029;-72
2022/08/01 01:29:36;;;;;;;0.13;0.13;;;;;;;;;;5033316;28;20008;-74
2022/08/01 01:32:05;;;;;;;0.20;0.20;;;;;;;;;;5032174;28;20033;-72
2022/08/01 01:34:37;;;;;;;0.20;0.20;;;;;;;;;;5031490;28;20052;-72
2022/08/01 01:37:04;;;;;;;0.20;0.20;;;;;;;;;;5039107;28;20037;-74
2022/08/01 01:39:30;;;;;;;0.20;0.20;;;;;;;;;;5052042;28;20074;-72
2022/08/01 01:41:57;;;;;;;0.20;0.20;;;;;;;;;;5051661;28;20496;-73
2022/08/01 01:44:23;;;;;;;0.20;0.20;;;;;;;;;;5051580;28;20492;-75
2022/08/01 01:46:49;;;;;;;0.30;0.30;;;;;;;;;;5050710;28;20049;-74
2022/08/01 01:49:15;;;;;;;0.20;0.20;;;;;;;;;;5051372;28;20385;-74
2022/08/01 01:51:41;;;;;;;0.20;0.20;;;;;;;;;;5055884;28;20484;-74
2022/08/01 01:54:08;;;;;;;0.20;0.20;;;;;;;;;;5056708;28;20086;-73
2022/08/01 01:56:35;;;;;;;0.20;0.20;;;;;;;;;;5056777;28;20124;-73
2022/08/01 01:59:00;;;;;;;11.65;0.65;;;;;;;;;;5056691;28;20078;-74
2022/08/01 02:01:28;;;;;;;0.20;0.20;;;;;;;;;;5056018;28;20111;-73
2022/08/01 02:03:54;;;;;;;0.20;0.20;;;;;;;;;;5054440;28;20033;-72
2022/08/01 02:06:21;;;;;;;0.20;0.20;;;;;;;;;;5040227;28;20022;-73
2022/08/01 02:08:47;;;;;;;0.20;0.20;;;;;;;;;;5035525;28;20033;-73
2022/08/01 02:11:18;;;;;;;0.20;0.20;;;;;;;;;;5035411;28;20117;-74
2022/08/01 02:13:45;;;;;;;0.20;0.20;;;;;;;;;;5035385;28;20034;-72
2022/08/01 02:16:11;;;;;;;34.60;3.63;;;;;;;;;;5035208;28;20025;-72
2022/08/01 02:18:36;;;;;;;0.10;0.10;;;;;;;;;;5035027;28;20485;-73
2022/08/01 02:21:03;;;;;;;0.20;0.20;;;;;;;;;;5036755;28;20083;-73
2022/08/01 02:23:32;;;;;;;0.10;0.10;;;;;;;;;;5036374;28;20109;-74
2022/08/01 02:25:57;;;;;;;0.20;0.20;;;;;;;;;;5036407;28;20100;-73
2022/08/01 02:28:26;;;;;;;0.85;0.85;;;;;;;;;;5034377;28;20022;-72
2022/08/01 02:30:51;;;;;;;1.13;0.90;;;;;;;;;;5034087;28;20017;-73
2022/08/01 02:33:18;;;;;;;0.32;0.32;;;;;;;;;;5034185;28;20026;-73
2022/08/01 02:35:45;;;;;;;0.20;0.20;;;;;;;;;;5016194;28;20491;-73
2022/08/01 02:38:12;;;;;;;1.02;0.80;;;;;;;;;;5033935;28;20113;-74
2022/08/01 02:40:39;;;;;;;0.20;0.20;;;;;;;;;;5034136;28;20029;-73
2022/08/01 02:43:05;;;;;;;0.32;0.32;;;;;;;;;;5033445;28;20389;-73
2022/08/01 02:45:31;;;;;;;0.30;0.30;;;;;;;;;;5035971;28;20029;-71
2022/08/01 02:48:04;;;;;;;0.25;0.25;;;;;;;;;;5018327;28;20087;-72
2022/08/01 02:50:31;;;;;;;0.20;0.20;;;;;;;;;;5035931;28;20547;-72
2022/08/01 02:52:57;;;;;;;0.20;0.20;;;;;;;;;;5035959;28;20354;-72
2022/08/01 02:55:24;;;;;;;0.20;0.20;;;;;;;;;;5034588;28;20029;-72
2022/08/01 02:57:51;;;;;;;0.10;0.10;;;;;;;;;;5035763;28;20069;-73
2022/08/01 03:00:16;;;;;;;0.20;0.20;;;;;;;;;;5035540;28;20033;-72
2022/08/01 03:02:43;;;;;;;0.10;0.10;;;;;;;;;;5020072;28;20013;-74
2022/08/01 03:05:09;;;;;;;0.20;0.20;;;;;;;;;;5051934;28;20040;-72
2022/08/01 03:07:35;;;;;;;0.20;0.20;;;;;;;;;;5051619;28;20053;-74
2022/08/01 03:10:01;;;;;;;0.70;0.60;;;;;;;;;;5051922;28;20507;-74
2022/08/01 03:12:29;;;;;;;0.43;0.43;;;;;;;;;;5050806;28;20411;-74
2022/08/01 03:14:56;;;;;;;0.20;0.20;;;;;;;;;;5034118;28;20033;-72
2022/08/01 03:17:24;;;;;;;0.13;0.13;;;;;;;;;;5032913;28;20400;-73
2022/08/01 03:19:51;;;;;;;0.32;0.32;;;;;;;;;;5051331;28;20048;-75
2022/08/01 03:22:17;;;;;;;4.97;1.75;;;;;;;;;;5051246;28;20104;-74
2022/08/01 03:24:44;;;;;;;0.90;0.40;;;;;;;;;;5050083;28;20129;-74
2022/08/01 03:27:10;;;;;;;0.40;0.40;;;;;;;;;;5051135;28;20455;-75
2022/08/01 03:29:36;;;;;;;0.15;0.15;;;;;;;;;;5049830;28;20495;-73
2022/08/01 03:32:02;;;;;;;0.40;0.40;;;;;;;;;;5049960;28;20033;-74
2022/08/01 03:34:28;;;;;;;0.22;0.22;;;;;;;;;;5050344;28;20128;-71
2022/08/01 03:37:01;;;;;;;0.20;0.20;;;;;;;;;;5050717;28;20116;-74
2022/08/01 03:39:30;;;;;;;0.20;0.20;;;;;;;;;;5050979;28;20033;-74
2022/08/01 03:41:57;;;;;;;0.22;0.22;;;;;;;;;;5049915;28;20029;-75
2022/08/01 03:44:25;;;;;;;1.60;1.60;;;;;;;;;;5049534;28;20029;-74
2022/08/01 03:46:58;;;;;;;0.40;0.40;;;;;;;;;;5051204;28;20032;-76
2022/08/01 03:49:26;;;;;;;0.85;0.60;;;;;;;;;;5033172;28;20116;-74
2022/08/01 03:51:52;;;;;;;0.30;0.30;;;;;;;;;;5050916;28;20032;-75
2022/08/01 03:54:21;;;;;;;0.20;0.20;;;;;;;;;;5051034;28;20032;-74
2022/08/01 03:56:48;;;;;;;0.20;0.20;;;;;;;;;;5051126;28;20460;-74
2022/08/01 03:59:15;;;;;;;0.30;0.30;;;;;;;;;;5049754;28;20041;-73
2022/08/01 04:01:41;;;;;;;0.50;0.50;;;;;;;;;;5049430;28;20065;-75
2022/08/01 04:04:07;;;;;;;20.83;2.08;;;;;;;;;;5050728;28;20053;-75
2022/08/01 04:06:32;;;;;;;0.20;0.20;;;;;;;;;;5050962;28;20033;-75
2022/08/01 04:08:59;;;;;;;0.13;0.13;;;;;;;;;;5049135;28;20029;-76
2022/08/01 04:11:27;;;;;;;0.40;0.40;;;;;;;;;;5049217;28;20039;-72
2022/08/01 04:13:53;;;;;;;0.20;0.20;;;;;;;;;;5048812;28;20032;-73
2022/08/01 04:16:19;;;;;;;0.22;0.22;;;;;;;;;;5049219;28;20155;-73
2022/08/01 04:18:44;;;;;;;0.15;0.15;;;;;;;;;;5050881;28;20420;-73
2022/08/01 04:21:10;;;;;;;0.20;0.20;;;;;;;;;;5048793;28;20384;-73
2022/08/01 04:23:37;;;;;;;0.15;0.15;;;;;;;;;;5050463;28;20090;-72
2022/08/01 04:26:04;;;;;;;0.20;0.20;;;;;;;;;;5050131;28;20025;-73
2022/08/01 04:28:31;;;;;;;0.22;0.22;;;;;;;;;;5050005;28;20029;-74
2022/08/01 04:30:57;;;;;;;0.20;0.20;;;;;;;;;;5050223;28;20035;-74
2022/08/01 04:33:24;;;;;;;0.28;0.28;;;;;;;;;;5050085;28;20021;-73
2022/08/01 04:35:50;;;;;;;0.20;0.20;;;;;;;;;;5049732;28;20049;-74
2022/08/01 04:38:20;;;;;;;0.40;0.40;;;;;;;;;;5049759;28;20539;-73
2022/08/01 04:40:46;;;;;;;0.10;0.10;;;;;;;;;;5048231;28;20025;-75
2022/08/01 04:43:12;;;;;;;0.28;0.28;;;;;;;;;;5050074;28;20009;-72
2022/08/01 04:45:38;;;;;;;0.20;0.20;;;;;;;;;;5049836;28;20021;-73
2022/08/01 04:48:08;;;;;;;0.10;0.10;;;;;;;;;;5048687;28;20488;-73
2022/08/01 04:50:35;;;;;;;0.20;0.20;;;;;;;;;;5049578;28;20033;-72
2022/08/01 04:53:02;;;;;;;0.20;0.20;;;;;;;;;;5048432;28;20035;-72
2022/08/01 04:55:28;;;;;;;0.20;0.20;;;;;;;;;;5048511;28;20138;-73
2022/08/01 04:57:54;;;;;;;0.20;0.20;;;;;;;;;;5049626;28;20404;-73
2022/08/01 05:00:20;;;;;;;0.20;0.20;;;;;;;;;;5049262;28;20036;-71
2022/08/01 05:02:46;;;;;;;0.20;0.20;;;;;;;;;;5048563;28;20544;-73
2022/08/01 05:05:12;;;;;;;0.20;0.20;;;;;;;;;;5047966;28;20028;-73
2022/08/01 05:07:37;;;;;;;0.20;0.20;;;;;;;;;;5047575;28;20033;-74
2022/08/01 05:10:05;;;;;;;0.20;0.20;;;;;;;;;;5049305;28;20024;-74
2022/08/01 05:12:31;;;;;;;0.20;0.20;;;;;;;;;;5050044;28;20108;-74
2022/08/01 05:14:57;;;;;;;0.30;0.30;;;;;;;;;;5049350;28;20104;-74
2022/08/01 05:17:23;;;;;;;0.13;0.13;;;;;;;;;;5049908;28;20041;-73
2022/08/01 05:19:49;;;;;;;0.20;0.20;;;;;;;;;;5049166;28;20078;-72
2022/08/01 05:22:14;;;;;;;0.20;0.20;;;;;;;;;;5047845;28;20112;-73
2022/08/01 05:24:40;;;;;;;0.20;0.20;;;;;;;;;;5048998;28;20017;-74
2022/08/01 05:27:07;;;;;;;0.20;0.20;;;;;;;;;;5047983;28;20094;-73
2022/08/01 05:29:33;;;;;;;0.20;0.20;;;;;;;;;;5048368;28;20029;-74
2022/08/01 05:31:59;;;;;;;0.28;0.28;;;;;;;;;;5048207;28;20519;-75
2022/08/01 05:34:24;;;;;;;0.20;0.20;;;;;;;;;;5049016;28;21642;-72
2022/08/01 05:36:50;;;;;;;0.20;0.20;;;;;;;;;;5030255;28;20029;-71
2022/08/01 05:39:16;;;;;;;0.20;0.20;;;;;;;;;;5047285;28;20504;-72
2022/08/01 05:41:42;;;;;;;0.20;0.20;;;;;;;;;;5031499;28;20021;-73
2022/08/01 05:44:07;;;;;;;0.30;0.30;;;;;;;;;;5046393;28;20117;-74
2022/08/01 05:46:33;;;;;;;0.30;0.30;;;;;;;;;;5047164;28;20032;-74
2022/08/01 05:48:59;;;;;;;0.20;0.20;;;;;;;;;;5045251;28;20026;-73
2022/08/01 05:51:25;;;;;;;0.30;0.30;;;;;;;;;;5046173;28;20033;-74
2022/08/01 05:53:50;;;;;;;0.20;0.20;;;;;;;;;;5044991;28;20025;-74
2022/08/01 05:56:16;;;;;;;0.20;0.20;;;;;;;;;;5044436;28;20037;-76
2022/08/01 05:58:42;;;;;;;1.30;1.20;;;;;;;;;;5045373;28;20753;-75
2022/08/01 06:01:07;;;;;;;0.30;0.30;;;;;;;;;;5044710;28;20064;-76
2022/08/01 06:03:33;;;;;;;0.20;0.20;;;;;;;;;;5046055;28;20029;-76
2022/08/01 06:05:59;;;;;;;0.32;0.32;;;;;;;;;;5047186;28;20036;-74
2022/08/01 06:08:24;;;;;;;0.20;0.20;;;;;;;;;;5046461;28;20064;-74
2022/08/01 06:10:50;;;;;;;0.30;0.30;;;;;;;;;;5045716;28;20513;-73
2022/08/01 06:13:16;;;;;;;0.30;0.30;;;;;;;;;;5046538;28;20420;-75
2022/08/01 06:15:41;;;;;;;0.30;0.30;;;;;;;;;;5045752;28;20119;-73
2022/08/01 06:18:07;;;;;;;0.30;0.30;;;;;;;;;;5045243;28;20051;-76
2022/08/01 06:20:32;;;;;;;0.30;0.30;;;;;;;;;;5046255;28;20032;-74
2022/08/01 06:22:58;;;;;;;0.30;0.30;;;;;;;;;;5047329;28;20036;-75
2022/08/01 06:25:23;;;;;;;0.50;0.50;;;;;;;;;;5046705;28;20039;-75
2022/08/01 06:27:49;;;;;;;0.40;0.40;;;;;;;;;;5047163;28;20021;-73
2022/08/01 06:30:15;;;;;;;0.30;0.30;;;;;;;;;;5046241;28;20911;-74
2022/08/01 06:32:40;;;;;;;0.40;0.40;;;;;;;;;;5046808;28;20412;-75
2022/08/01 06:35:06;;;;;;;0.40;0.40;;;;;;;;;;5046366;28;20480;-74
2022/08/01 06:37:32;;;;;;;0.40;0.40;;;;;;;;;;5048871;28;20155;-71
2022/08/01 06:40:04;;;;;;;0.70;0.70;;;;;;;;;;5052523;28;20361;-73
2022/08/01 06:42:34;;;;;;;0.30;0.30;;;;;;;;;;5052258;28;20775;-73
2022/08/01 06:45:01;;;;;;;0.30;0.30;;;;;;;;;;5052040;28;20119;-72
2022/08/01 06:47:26;;;;;;;0.30;0.30;;;;;;;;;;5052157;28;20104;-74
2022/08/01 06:49:52;;;;;;;0.30;0.30;;;;;;;;;;5054315;28;20029;-72
2022/08/01 06:52:17;;;;;;;0.40;0.40;;;;;;;;;;5060416;28;20023;-72
2022/08/01 06:54:43;;;;;;;0.40;0.40;;;;;;;;;;5061267;28;20032;-72
2022/08/01 06:57:08;;;;;;;0.30;0.30;;;;;;;;;;5049816;28;20037;-72
2022/08/01 06:59:34;;;;;;;0.40;0.40;;;;;;;;;;5055325;28;20037;-75
2022/08/01 07:02:06;;;;;;;0.40;0.40;;;;;;;;;;5046195;28;20036;-72
2022/08/01 07:04:31;;;;;;;0.50;0.50;;;;;;;;;;5060505;28;20029;-72
2022/08/01 07:06:57;;;;;;;0.50;0.50;;;;;;;;;;5050435;28;20026;-72
2022/08/01 07:09:23;;;;;;;0.30;0.30;;;;;;;;;;5050505;28;20815;-73
2022/08/01 07:11:50;;;;;;;0.32;0.32;;;;;;;;;;5051458;28;20021;-73
2022/08/01 07:14:16;;;;;;;0.57;0.57;;;;;;;;;;5051444;28;20425;-73
2022/08/01 07:16:41;;;;;;;0.40;0.40;;;;;;;;;;5050287;28;20071;-75
2022/08/01 07:19:07;;;;;;;0.40;0.40;;;;;;;;;;5051606;28;20464;-73
2022/08/01 07:21:33;;;;;;;0.30;0.30;;;;;;;;;;5051338;28;20514;-73
2022/08/01 07:23:58;;;;;;;0.65;0.65;;;;;;;;;;5051210;28;20025;-72
2022/08/01 07:26:24;;;;;;;0.30;0.30;;;;;;;;;;5051371;28;20112;-72
2022/08/01 07:28:49;;;;;;;0.30;0.30;;;;;;;;;;5051334;28;20086;-74
2022/08/01 07:31:15;;;;;;;0.30;0.30;;;;;;;;;;5052031;28;20360;-73
2022/08/01 07:33:41;;;;;;;0.30;0.30;;;;;;;;;;5055216;28;20376;-73
2022/08/01 07:36:06;;;;;;;0.40;0.40;;;;;;;;;;5059299;28;20056;-71
2022/08/01 07:38:33;;;;;;;0.35;0.35;;;;;;;;;;5069630;28;20035;-73
2022/08/01 07:40:59;;;;;;;0.30;0.30;;;;;;;;;;5070795;28;20033;-71
2022/08/01 07:43:24;;;;;;;0.32;0.32;;;;;;;;;;5071795;28;20506;-72
2022/08/01 07:45:50;;;;;;;7.97;7.38;;;;;;;;;;5065111;28;20029;-72
2022/08/01 07:48:16;;;;;;;0.30;0.30;;;;;;;;;;5051986;28;20029;-72
2022/08/01 07:50:41;;;;;;;10.52;2.67;;;;;;;;;;5049753;28;20045;-71
2022/08/01 07:53:09;;;;;;;0.40;0.40;;;;;;;;;;5050466;28;20108;-73
2022/08/01 07:55:36;;;;;;;0.30;0.30;;;;;;;;;;5050195;28;20036;-72
2022/08/01 07:58:01;;;;;;;0.40;0.40;;;;;;;;;;5049810;28;20539;-72
2022/08/01 08:00:28;;;;;;;0.43;0.43;;;;;;;;;;5049513;28;20028;-73
2022/08/01 08:02:54;;;;;;;0.40;0.40;;;;;;;;;;5049195;28;20033;-73
2022/08/01 08:05:20;;;;;;;0.47;0.47;;;;;;;;;;5050227;28;20104;-72
2022/08/01 08:07:46;;;;;;;0.43;0.43;;;;;;;;;;5049297;28;20028;-73
2022/08/01 08:10:11;;;;;;;0.30;0.30;;;;;;;;;;5050732;28;20035;-72
2022/08/01 08:12:37;;;;;;;0.50;0.50;;;;;;;;;;5050300;28;20017;-73
2022/08/01 08:15:05;;;;;;;0.40;0.40;;;;;;;;;;5049987;28;20103;-74
2022/08/01 08:17:31;;;;;;;0.40;0.40;;;;;;;;;;5048741;28;20041;-73
2022/08/01 08:19:57;;;;;;;0.40;0.40;;;;;;;;;;5050682;28;20427;-74
2022/08/01 08:22:23;;;;;;;0.55;0.55;;;;;;;;;;5050368;28;20016;-72
2022/08/01 08:24:48;;;;;;;0.40;0.40;;;;;;;;;;5049762;28;20103;-72
2022/08/01 08:27:14;;;;;;;2.13;0.77;;;;;;;;;;5049893;28;20151;-73
2022/08/01 08:29:40;;;;;;;0.40;0.40;;;;;;;;;;5050458;28;20036;-71
2022/08/01 08:32:06;;;;;;;0.40;0.40;;;;;;;;;;5048829;28;20042;-72
2022/08/01 08:34:31;;;;;;;0.52;0.52;;;;;;;;;;5048456;28;20052;-73
2022/08/01 08:36:57;;;;;;;0.50;0.50;;;;;;;;;;5050205;28;20116;-72
2022/08/01 08:39:23;;;;;;;0.47;0.47;;;;;;;;;;5032113;28;20476;-73
2022/08/01 08:41:49;;;;;;;0.40;0.40;;;;;;;;;;5049757;28;20029;-73
2022/08/01 08:44:15;;;;;;;1.08;0.60;;;;;;;;;;5050108;28;20039;-72
2022/08/01 08:46:45;;;;;;;0.40;0.40;;;;;;;;;;5048876;28;20043;-72
2022/08/01 08:49:11;;;;;;;0.40;0.40;;;;;;;;;;5049519;28;20059;-74
2022/08/01 08:51:42;;;;;;;0.40;0.40;;;;;;;;;;5048113;28;20025;-74
2022/08/01 08:54:09;;;;;;;0.30;0.30;;;;;;;;;;5031308;28;20445;-74
2022/08/01 08:56:35;;;;;;;0.40;0.40;;;;;;;;;;5046302;28;20047;-72
2022/08/01 08:59:01;;;;;;;0.70;0.70;;;;;;;;;;5038689;28;20468;-74
2022/08/01 09:01:27;;;;;;;0.40;0.40;;;;;;;;;;5034519;28;20049;-72
2022/08/01 09:03:53;;;;;;;0.38;0.38;;;;;;;;;;5032000;28;20063;-73
2022/08/01 09:06:19;;;;;;;0.35;0.35;;;;;;;;;;5035091;28;20029;-74
2022/08/01 09:08:45;;;;;;;0.50;0.50;;;;;;;;;;5025065;28;20079;-73
2022/08/01 09:11:11;;;;;;;0.30;0.30;;;;;;;;;;5024601;28;20479;-73
2022/08/01 09:13:37;;;;;;;0.43;0.43;;;;;;;;;;5048999;28;20121;-72
2022/08/01 09:16:05;;;;;;;0.60;0.60;;;;;;;;;;5047190;28;20099;-72
2022/08/01 09:18:44;;;;;;;0.40;0.40;;;;;;;;;;5030693;28;20435;-73
2022/08/01 09:21:14;;;;;;;0.40;0.40;;;;;;;;;;5031352;28;20114;-75
2022/08/01 09:23:42;;;;;;;0.50;0.50;;;;;;;;;;5029369;28;20053;-73
2022/08/01 09:26:11;;;;;;;0.40;0.40;;;;;;;;;;5046180;28;20112;-73
2022/08/01 09:28:38;;;;;;;0.40;0.40;;;;;;;;;;5043636;28;20879;-73
2022/08/01 09:31:18;;;;;;;0.47;0.47;;;;;;;;;;5041398;28;20107;-73
2022/08/01 09:33:54;;;;;;;0.40;0.40;;;;;;;;;;5049632;28;20043;-73
2022/08/01 09:36:21;;;;;;;0.30;0.30;;;;;;;;;;5031360;28;20084;-73
2022/08/01 09:38:46;;;;;;;0.52;0.52;;;;;;;;;;5049224;28;20025;-73
2022/08/01 09:41:14;;;;;;;0.35;0.35;;;;;;;;;;5048106;28;20169;-74
2022/08/01 09:43:39;;;;;;;0.45;0.45;;;;;;;;;;5049053;28;20115;-74
2022/08/01 09:46:10;;;;;;;0.43;0.43;;;;;;;;;;5049003;28;20033;-73
2022/08/01 09:48:39;;;;;;;0.40;0.40;;;;;;;;;;5049118;28;20814;-72
2022/08/01 09:51:05;;;;;;;0.60;0.60;;;;;;;;;;5048456;28;20087;-73
2022/08/01 09:53:46;;;;;;;0.40;0.40;;;;;;;;;;5045557;28;20037;-73
2022/08/01 09:56:12;;;;;;;0.40;0.40;;;;;;;;;;5048917;28;20025;-72
2022/08/01 09:58:50;;;;;;;0.40;0.40;;;;;;;;;;5049371;28;20512;-72
2022/08/01 10:01:15;;;;;;;0.50;0.50;;;;;;;;;;5017023;28;20025;-72
2022/08/01 10:03:41;;;;;;;0.40;0.40;;;;;;;;;;5034946;28;20032;-72
2022/08/01 10:06:20;;;;;;;0.60;0.60;;;;;;;;;;5038012;28;20028;-73
2022/08/01 10:08:49;;;;;;;0.63;0.63;;;;;;;;;;5037718;28;20032;-73
2022/08/01 10:11:14;;;;;;;0.68;0.68;;;;;;;;;;5042751;28;20029;-74
2022/08/01 10:13:40;;;;;;;2.30;0.70;;;;;;;;;;5041788;28;20029;-72
2022/08/01 10:16:06;;;;;;;0.90;0.60;;;;;;;;;;5032877;28;20473;-74
2022/08/01 10:18:33;;;;;;;0.40;0.40;;;;;;;;;;5044367;28;20036;-73
2022/08/01 10:21:03;;;;;;;0.55;0.55;;;;;;;;;;5031402;28;20848;-71
2022/08/01 10:23:32;;;;;;;0.50;0.50;;;;;;;;;;5048592;28;20113;-72
2022/08/01 10:25:58;;;;;;;0.50;0.50;;;;;;;;;;5062305;28;20483;-71
2022/08/01 10:28:25;;;;;;;22.88;1.40;;;;;;;;;;5058613;28;20035;-73
2022/08/01 10:30:51;;;;;;;0.68;0.68;;;;;;;;;;5052243;28;20115;-72
2022/08/01 10:33:17;;;;;;;1.35;0.70;;;;;;;;;;5051272;28;20129;-73
2022/08/01 10:35:45;;;;;;;0.40;0.40;;;;;;;;;;5034431;28;20045;-73
2022/08/01 10:38:10;;;;;;;0.40;0.40;;;;;;;;;;5052039;28;20044;-73
2022/08/01 10:40:37;;;;;;;0.40;0.40;;;;;;;;;;5034815;28;20396;-74
2022/08/01 10:43:02;;;;;;;0.63;0.63;;;;;;;;;;5052414;28;20113;-73
2022/08/01 10:45:28;;;;;;;0.68;0.50;;;;;;;;;;5052113;28;20108;-72
2022/08/01 10:47:58;;;;;;;0.40;0.40;;;;;;;;;;5030744;28;20359;-73
2022/08/01 10:50:27;;;;;;;0.55;0.55;;;;;;;;;;5025650;28;20240;-75
2022/08/01 10:53:08;;;;;;;1.75;0.73;;;;;;;;;;5052138;28;20029;-73
2022/08/01 10:55:47;;;;;;;0.50;0.50;;;;;;;;;;5051746;28;20032;-72
2022/08/01 10:58:12;;;;;;;0.95;0.93;;;;;;;;;;5050944;28;20265;-72
2022/08/01 11:00:38;;;;;;;1.88;0.73;;;;;;;;;;5050795;28;20499;-72
2022/08/01 11:03:03;;;;;;;1.52;0.73;;;;;;;;;;5050575;28;20029;-72
2022/08/01 11:05:33;;;;;;;0.68;0.68;;;;;;;;;;5051473;28;20025;-73
2022/08/01 11:08:03;;;;;;;0.95;0.80;;;;;;;;;;5050519;28;20036;-72
2022/08/01 11:10:40;;;;;;;0.50;0.50;;;;;;;;;;5034244;28;20025;-72
2022/08/01 11:13:10;;;;;;;1.15;0.90;;;;;;;;;;5051709;28;20041;-72
2022/08/01 11:15:40;;;;;;;0.45;0.45;;;;;;;;;;5050062;28;20028;-72
2022/08/01 11:18:24;;;;;;;1.50;1.10;;;;;;;;;;5051057;28;20537;-74
2022/08/01 11:21:00;;;;;;;0.93;0.50;;;;;;;;;;5051096;28;20029;-73
2022/08/01 11:23:27;;;;;;;0.70;0.70;;;;;;;;;;5051188;28;20033;-75
2022/08/01 11:25:53;;;;;;;0.68;0.50;;;;;;;;;;5030456;28;20022;-72
2022/08/01 11:28:20;;;;;;;0.73;0.70;;;;;;;;;;5040178;28;20061;-73
2022/08/01 11:30:45;;;;;;;0.93;0.77;;;;;;;;;;5013709;28;20029;-72
2022/08/01 11:33:11;;;;;;;0.50;0.50;;;;;;;;;;5030993;28;20025;-72
2022/08/01 11:35:38;;;;;;;0.60;0.60;;;;;;;;;;5028500;28;20053;-73
2022/08/01 11:38:23;;;;;;;0.82;0.82;;;;;;;;;;5011340;28;20132;-74
2022/08/01 11:41:09;;;;;;;12.38;0.93;;;;;;;;;;5011331;28;20535;-73
2022/08/01 11:43:34;;;;;;;0.95;0.68;;;;;;;;;;5029213;28;20037;-74
2022/08/01 11:46:00;;;;;;;0.35;0.35;;;;;;;;;;5028207;28;20116;-72
2022/08/01 11:48:26;;;;;;;0.80;0.70;;;;;;;;;;5031269;28;20036;-73
2022/08/01 11:50:52;;;;;;;0.60;0.60;;;;;;;;;;5032906;28;20033;-71
2022/08/01 11:53:19;;;;;;;0.63;0.63;;;;;;;;;;5018553;28;20080;-75
2022/08/01 11:55:49;;;;;;;0.68;0.68;;;;;;;;;;5014262;28;20065;-74
2022/08/01 11:58:15;;;;;;;1.85;0.98;;;;;;;;;;5029733;28;20128;-72
2022/08/01 12:00:40;;;;;;;3.28;1.02;;;;;;;;;;5029223;28;20033;-73
2022/08/01 12:03:07;;;;;;;2.08;0.95;;;;;;;;;;5028058;28;20041;-73
2022/08/01 12:05:34;;;;;;;0.70;0.70;;;;;;;;;;5047713;28;20025;-73
2022/08/01 12:07:59;;;;;;;0.50;0.50;;;;;;;;;;5030988;28;20043;-73
2022/08/01 12:10:27;;;;;;;1.17;1.08;;;;;;;;;;5048599;28;20032;-73
2022/08/01 12:12:59;;;;;;;1.95;0.93;;;;;;;;;;5060800;28;20024;-73
2022/08/01 12:15:24;;;;;;;3.28;0.90;;;;;;;;;;5046785;28;20060;-74
2022/08/01 12:17:51;;;;;;;0.80;0.80;;;;;;;;;;5047505;28;20065;-74
2022/08/01 12:20:20;;;;;;;1.05;0.95;;;;;;;;;;5047912;28;20029;-73
2022/08/01 12:22:46;;;;;;;0.73;0.70;;;;;;;;;;5048359;28;20065;-72
2022/08/01 12:25:16;;;;;;;0.88;0.68;;;;;;;;;;5029506;28;20499;-74
2022/08/01 12:27:42;;;;;;;4.43;1.27;;;;;;;;;;5048495;28;20148;-73
2022/08/01 12:30:09;;;;;;;3.00;0.68;;;;;;;;;;5030904;28;20423;-74
2022/08/01 12:32:36;;;;;;;0.75;0.68;;;;;;;;;;5047303;28;20037;-72
2022/08/01 12:35:05;;;;;;;0.47;0.47;;;;;;;;;;5047713;28;20152;-76
2022/08/01 12:37:31;;;;;;;;;;;;;;;;;;5030321;28;20488;-73
2022/08/01 12:39:57;;;;;;;3.03;0.70;;;;;;;;;;5030806;28;19970;-74
2022/08/01 12:42:24;;;;;;;0.55;0.55;;;;;;;;;;5046413;28;20507;-75
2022/08/01 12:44:51;;;;;;;0.50;0.50;;;;;;;;;;5046520;28;20402;-72
2022/08/01 12:47:17;;;;;;;0.60;0.60;;;;;;;;;;5045988;28;20395;-73
2022/08/01 12:49:44;;;;;;;0.50;0.50;;;;;;;;;;5046967;28;20074;-74
2022/08/01 12:52:10;;;;;;;0.55;0.55;;;;;;;;;;5029643;28;20100;-74
2022/08/01 12:54:54;;;;;;;1.25;0.82;;;;;;;;;;5030496;28;20071;-75
2022/08/01 12:57:23;;;;;;;0.60;0.60;;;;;;;;;;5045475;28;20057;-73
2022/08/01 12:59:52;;;;;;;3.00;1.13;;;;;;;;;;5044911;28;20017;-73
2022/08/01 13:02:18;;;;;;;;;;;;;;;;;;5048308;28;20048;-73
2022/08/01 13:04:51;;;;;;;0.73;0.73;;;;;;;;;;5034204;28;19917;-73
2022/08/01 13:07:16;;;;;;;0.43;0.43;;;;;;;;;;5026550;28;20590;-73
2022/08/01 13:09:49;;;;;;;0.38;0.38;;;;;;;;;;5036559;28;20465;-76
2022/08/01 13:12:15;;;;;;;0.88;0.82;;;;;;;;;;5017376;28;20040;-73
2022/08/01 13:14:40;;;;;;;1.95;1.02;;;;;;;;;;5047051;28;20025;-72
2022/08/01 13:17:06;;;;;;;1.35;0.88;;;;;;;;;;5040316;28;20025;-73
2022/08/01 13:19:42;;;;;;;0.90;0.80;;;;;;;;;;5046254;28;20112;-73
2022/08/01 13:22:07;;;;;;;2.65;1.00;;;;;;;;;;5046526;28;20033;-74
2022/08/01 13:24:33;;;;;;;0.57;0.57;;;;;;;;;;5047737;28;20037;-71
2022/08/01 13:27:00;;;;;;;3.42;0.80;;;;;;;;;;5045731;28;20060;-75
2022/08/01 13:29:33;;;;;;;1.65;1.08;;;;;;;;;;5046985;28;20033;-74
2022/08/01 13:32:00;;;;;;;1.38;0.93;;;;;;;;;;5041253;28;20040;-74
2022/08/01 13:34:29;;;;;;;0.60;0.60;;;;;;;;;;5045186;28;20041;-72
2022/08/01 13:36:55;;;;;;;0.80;0.70;;;;;;;;;;5045414;28;20438;-76
2022/08/01 13:42:05;;;;;;;0.80;0.80;;;;;;;;;;5045956;28;20040;-73
2022/08/01 13:44:31;;;;;;;0.60;0.60;;;;;;;;;;5028161;28;20030;-74
2022/08/01 13:46:58;;;;;;;0.63;0.63;;;;;;;;;;5050316;28;20036;-74
2022/08/01 13:49:24;;;;;;;0.40;0.40;;;;;;;;;;5050142;28;20036;-74
2022/08/01 13:51:50;;;;;;;0.80;0.80;;;;;;;;;;5049242;28;20021;-73
2022/08/01 13:54:16;;;;;;;1.70;0.88;;;;;;;;;;5049319;28;20025;-74
2022/08/01 13:56:42;;;;;;;0.77;0.77;;;;;;;;;;5050275;28;20043;-74
2022/08/01 13:59:07;;;;;;;4.85;1.20;;;;;;;;;;5049384;28;20028;-74
2022/08/01 14:01:34;;;;;;;0.80;0.73;;;;;;;;;;5048511;28;20498;-78
2022/08/01 14:03:59;;;;;;;1.38;0.88;;;;;;;;;;5050738;28;20025;-76
2022/08/01 14:06:25;;;;;;;0.40;0.40;;;;;;;;;;5051266;28;20033;-75
2022/08/01 14:08:51;;;;;;;1.65;1.17;;;;;;;;;;5050040;28;20029;-74
2022/08/01 14:11:17;;;;;;;0.90;0.80;;;;;;;;;;5032993;28;20619;-75
2022/08/01 14:13:42;;;;;;;4.28;1.13;;;;;;;;;;5051022;28;20484;-75
2022/08/01 14:16:08;;;;;;;0.75;0.73;;;;;;;;;;5052476;28;20060;-74
2022/08/01 14:18:34;;;;;;;0.88;0.82;;;;;;;;;;5051592;28;20037;-75
2022/08/01 14:20:59;;;;;;;0.43;0.43;;;;;;;;;;5052439;28;20461;-74
2022/08/01 14:23:25;;;;;;;1.10;1.00;;;;;;;;;;5053307;28;20025;-75
2022/08/01 14:25:50;;;;;;;0.57;0.57;;;;;;;;;;5053989;28;20033;-75
2022/08/01 14:28:16;;;;;;;0.75;0.75;;;;;;;;;;5052827;28;20108;-74
2022/08/01 14:30:42;;;;;;;3.90;2.00;;;;;;;;;;5052286;28;20067;-74
2022/08/01 14:33:08;;;;;;;0.68;0.60;;;;;;;;;;5050864;28;20024;-74
2022/08/01 14:35:33;;;;;;;2.70;1.00;;;;;;;;;;5050983;28;20457;-73
2022/08/01 14:37:59;;;;;;;2.17;1.13;;;;;;;;;;5052133;28;20040;-74
2022/08/01 14:40:24;;;;;;;1.52;1.17;;;;;;;;;;5052339;28;20123;-77
2022/08/01 14:42:49;;;;;;;1.23;1.13;;;;;;;;;;5052536;28;20361;-73
2022/08/01 14:45:15;;;;;;;1.00;0.85;;;;;;;;;;5051941;28;20021;-72